Groznyj, Russia
Current Conditions -  °F | °C
As of 4:30 PM on Saturday 20 Dec 2014 (Local Time) from URMO Reporting Station
Broken Clouds Broken Clouds  
Wind Chill: 38°   Ceiling: 13000
Heat Index: 43°   Visibility: 6mi
Dew Point: 36°   Wind: 9mph
Humidity: 76%   Direction: 60°ENE
Pressure: 30.06"   Gusts: NA
Location:  43.31°N, 45.7°E
Report Text: URMO 201330Z 06004MPS 9999 BKN130 06/02 Q1018 NOSIG RMKQFE720/0960 SC070
Loading
Personal Weather Stations






























Interactive Weather Map New forecast layout! Learn more

10-Day Weather Forecast

Advertisements
Track Severe Weather on mobile